Industrial Hillside, New Jersey
Current Conditions -  °F | °C
As of 2:51 AM on Monday 24 Nov 2014 (Local Time) from KEWR Reporting Station
Moderate Rain Moderate Rain  
Wind Chill: 52°   Ceiling: 700
Heat Index: 52°   Visibility: 5mi
Dew Point: 51°   Wind: 12mph
Humidity: 98%   Direction: 130°SE
Pressure: 29.82"   Gusts: 21mph
Location:  40.6961°N, 74.2294°W
Report Text: KEWR 240751Z 13010G18KT 5SM RA BR BKN007 OVC017 11/11 A2982 RMK AO2 PRESFR SLP096 P0010 T01110108 $
Loading
Personal Weather Stations






























Interactive Weather Map New forecast layout! Learn more

10-Day Weather Forecast

Advertisements
Track Severe Weather on mobile